Time,TemperatureF,DewpointF,PressureIn,WindDirection,WindDirectionDegrees,WindSpeedMPH,WindSpeedGustMPH,Humidity,HourlyPrecipIn,Conditions,Clouds,dailyrainin,SoftwareType,DateUTC
2013-12-13 00:03:00,-999.0,-99.9,30.10,North,0,0.0,-999.0,-999,-99.99,,,-99.99,,2013-12-13 10:03:00,
2013-12-13 00:12:00,-999.0,-99.9,30.10,North,0,0.0,-999.0,-999,-99.99,,,-99.99,,2013-12-13 10:12:00,
2013-12-13 00:23:00,-999.0,-99.9,30.10,East,100,1.0,-999.0,-999,-99.99,,,-99.99,,2013-12-13 10:23:00,
2013-12-13 00:34:00,-999.0,-99.9,30.10,North,0,0.0,-999.0,-999,-99.99,,,-99.99,,2013-12-13 10:34:00,
2013-12-13 00:43:00,-999.0,-99.9,30.09,East,100,1.0,-999.0,-999,-99.99,,,-99.99,,2013-12-13 10:43:00,
2013-12-13 00:53:00,-999.0,-99.9,30.09,East,90,9.0,-999.0,-999,-99.99,,,-99.99,,2013-12-13 10:53:00,
2013-12-13 01:02:00,-999.0,-99.9,30.09,East,90,9.0,-999.0,-999,-99.99,,,-99.99,,2013-12-13 11:02:00,
2013-12-13 01:12:00,-999.0,-99.9,30.09,East,90,2.0,-999.0,-999,-99.99,,,-99.99,,2013-12-13 11:12:00,
2013-12-13 01:22:00,-999.0,-99.9,30.09,East,90,3.0,-999.0,-999,-99.99,,,-99.99,,2013-12-13 11:22:00,
2013-12-13 01:33:00,-999.0,-99.9,30.08,North,0,0.0,-999.0,-999,-99.99,,,-99.99,,2013-12-13 11:33:00,
2013-12-13 01:43:00,-999.0,-99.9,30.08,East,80,2.0,-999.0,-999,-99.99,,,-99.99,,2013-12-13 11:43:00,
2013-12-13 01:53:00,-999.0,-99.9,30.08,East,90,3.0,-999.0,-999,-99.99,,,-99.99,,2013-12-13 11:53:00,
2013-12-13 02:02:00,-999.0,-99.9,30.08,East,90,3.0,-999.0,-999,-99.99,,,-99.99,,2013-12-13 12:02:00,
2013-12-13 02:12:00,-999.0,-99.9,30.07,North,0,0.0,-999.0,-999,-99.99,,,-99.99,,2013-12-13 12:12:00,
2013-12-13 02:32:00,-999.0,-99.9,30.07,East,100,8.0,-999.0,-999,-99.99,,,-99.99,,2013-12-13 12:32:00,
2013-12-13 02:42:00,-999.0,-99.9,30.06,North,0,0.0,-999.0,-999,-99.99,,,-99.99,,2013-12-13 12:42:00,
2013-12-13 02:53:00,-999.0,-99.9,30.06,East,90,8.0,-999.0,-999,-99.99,,,-99.99,,2013-12-13 12:53:00,
2013-12-13 03:02:00,-999.0,-99.9,30.06,East,90,8.0,-999.0,-999,-99.99,,,-99.99,,2013-12-13 13:02:00,
2013-12-13 03:12:00,-999.0,-99.9,30.06,North,0,0.0,-999.0,-999,-99.99,,,-99.99,,2013-12-13 13:12:00,
2013-12-13 03:22:00,-999.0,-99.9,30.06,SE,130,2.0,-999.0,-999,-99.99,,,-99.99,,2013-12-13 13:22:00,
2013-12-13 03:32:00,-999.0,-99.9,30.06,North,0,0.0,-999.0,-999,-99.99,,,-99.99,,2013-12-13 13:32:00,
2013-12-13 03:42:00,-999.0,-99.9,30.06,East,100,7.0,-999.0,-999,-99.99,,,-99.99,,2013-12-13 13:42:00,
2013-12-13 03:52:00,-999.0,-99.9,30.06,ESE,120,6.0,-999.0,-999,-99.99,,,-99.99,,2013-12-13 13:52:00,
2013-12-13 04:02:00,-999.0,-99.9,30.06,ESE,120,6.0,-999.0,-999,-99.99,,,-99.99,,2013-12-13 14:02:00,
2013-12-13 04:12:00,-999.0,-99.9,30.06,SE,130,3.0,-999.0,-999,-99.99,,,-99.99,,2013-12-13 14:12:00,
2013-12-13 04:22:00,-999.0,-99.9,30.06,North,0,0.0,-999.0,-999,-99.99,,,-99.99,,2013-12-13 14:22:00,
2013-12-13 04:32:00,-999.0,-99.9,30.06,North,0,0.0,-999.0,-999,-99.99,,,-99.99,,2013-12-13 14:32:00,
2013-12-13 04:43:00,-999.0,-99.9,30.07,East,100,6.0,-999.0,-999,-99.99,,,-99.99,,2013-12-13 14:43:00,
2013-12-13 04:53:00,-999.0,-99.9,30.07,ESE,110,3.0,-999.0,-999,-99.99,,,-99.99,,2013-12-13 14:53:00,
2013-12-13 05:02:00,-999.0,-99.9,30.07,ESE,110,3.0,-999.0,-999,-99.99,,,-99.99,,2013-12-13 15:02:00,
2013-12-13 05:12:00,-999.0,-99.9,30.07,SSE,150,5.0,-999.0,-999,-99.99,,,-99.99,,2013-12-13 15:12:00,
2013-12-13 05:22:00,-999.0,-99.9,30.07,North,0,0.0,-999.0,-999,-99.99,,,-99.99,,2013-12-13 15:22:00,
2013-12-13 05:33:00,-999.0,-99.9,30.07,North,0,0.0,-999.0,-999,-99.99,,,-99.99,,2013-12-13 15:33:00,
2013-12-13 05:44:00,-999.0,-99.9,30.07,South,170,5.0,-999.0,-999,-99.99,,,-99.99,,2013-12-13 15:44:00,
2013-12-13 05:54:00,-999.0,-99.9,30.07,North,0,0.0,-999.0,-999,-99.99,,,-99.99,,2013-12-13 15:54:00,
2013-12-13 06:03:00,-999.0,-99.9,30.07,North,0,0.0,-999.0,-999,-99.99,,,-99.99,,2013-12-13 16:03:00,
2013-12-13 06:13:00,-999.0,-99.9,30.07,North,0,0.0,-999.0,-999,-99.99,,,-99.99,,2013-12-13 16:13:00,
2013-12-13 06:23:00,-999.0,-99.9,30.07,North,0,0.0,-999.0,-999,-99.99,,,-99.99,,2013-12-13 16:23:00,
2013-12-13 06:33:00,-999.0,-99.9,30.07,North,0,0.0,-999.0,-999,-99.99,,,-99.99,,2013-12-13 16:33:00,
2013-12-13 06:43:00,-999.0,-99.9,30.07,North,0,0.0,-999.0,-999,-99.99,,,-99.99,,2013-12-13 16:43:00,
2013-12-13 06:53:00,-999.0,-99.9,30.07,North,0,0.0,-999.0,-999,-99.99,,,-99.99,,2013-12-13 16:53:00,
2013-12-13 07:02:00,-999.0,-99.9,30.07,North,0,0.0,-999.0,-999,-99.99,,,-99.99,,2013-12-13 17:02:00,
2013-12-13 07:12:00,-999.0,-99.9,30.08,ESE,110,2.0,-999.0,-999,-99.99,,,-99.99,,2013-12-13 17:12:00,
2013-12-13 07:22:00,-999.0,-99.9,30.08,SE,130,13.0,-999.0,-999,-99.99,,,-99.99,,2013-12-13 17:22:00,
2013-12-13 07:33:00,-999.0,-99.9,30.08,ESE,110,1.0,-999.0,-999,-99.99,,,-99.99,,2013-12-13 17:33:00,
2013-12-13 07:43:00,-999.0,-99.9,30.08,SE,140,7.0,-999.0,-999,-99.99,,,-99.99,,2013-12-13 17:43:00,
2013-12-13 07:52:00,-999.0,-99.9,30.09,ESE,110,8.0,-999.0,-999,-99.99,,,-99.99,,2013-12-13 17:52:00,
2013-12-13 08:02:00,-999.0,-99.9,30.09,ESE,110,8.0,-999.0,-999,-99.99,,,-99.99,,2013-12-13 18:02:00,
2013-12-13 08:12:00,-999.0,-99.9,30.09,East,100,5.0,-999.0,-999,-99.99,,,-99.99,,2013-12-13 18:12:00,
2013-12-13 08:22:00,-999.0,-99.9,30.09,SE,130,10.0,-999.0,-999,-99.99,,,-99.99,,2013-12-13 18:22:00,
2013-12-13 08:33:00,-999.0,-99.9,30.10,ESE,110,8.0,17.0,-999,-99.99,,,-99.99,,2013-12-13 18:33:00,
2013-12-13 08:42:00,-999.0,-99.9,30.10,SSE,150,3.0,18.0,-999,-99.99,,,-99.99,,2013-12-13 18:42:00,
2013-12-13 08:52:00,-999.0,-99.9,30.10,East,100,7.0,-999.0,-999,-99.99,,,-99.99,,2013-12-13 18:52:00,
2013-12-13 09:02:00,-999.0,-99.9,30.10,East,100,7.0,-999.0,-999,-99.99,,,-99.99,,2013-12-13 19:02:00,
2013-12-13 09:12:00,-999.0,-99.9,30.11,ESE,120,10.0,-999.0,-999,-99.99,,,-99.99,,2013-12-13 19:12:00,
2013-12-13 09:22:00,-999.0,-99.9,30.11,ESE,120,6.0,16.0,-999,-99.99,,,-99.99,,2013-12-13 19:22:00,
2013-12-13 09:32:00,-999.0,-99.9,30.11,ESE,110,10.0,16.0,-999,-99.99,,,-99.99,,2013-12-13 19:32:00,
2013-12-13 09:42:00,-999.0,-99.9,30.11,ESE,110,6.0,-999.0,-999,-99.99,,,-99.99,,2013-12-13 19:42:00,
2013-12-13 09:52:00,-999.0,-99.9,30.11,SE,130,7.0,-999.0,-999,-99.99,,,-99.99,,2013-12-13 19:52:00,
2013-12-13 10:02:00,-999.0,-99.9,30.11,SE,130,7.0,-999.0,-999,-99.99,,,-99.99,,2013-12-13 20:02:00,
2013-12-13 10:12:00,-999.0,-99.9,30.11,ESE,110,6.0,18.0,-999,-99.99,,,-99.99,,2013-12-13 20:12:00,
2013-12-13 10:22:00,-999.0,-99.9,30.11,North,0,0.0,-999.0,-999,-99.99,,,-99.99,,2013-12-13 20:22:00,
2013-12-13 10:32:00,-999.0,-99.9,30.11,East,100,3.0,-999.0,-999,-99.99,,,-99.99,,2013-12-13 20:32:00,
2013-12-13 10:42:00,-999.0,-99.9,30.11,SE,140,6.0,-999.0,-999,-99.99,,,-99.99,,2013-12-13 20:42:00,
2013-12-13 10:53:00,-999.0,-99.9,30.12,East,90,6.0,-999.0,-999,-99.99,,,-99.99,,2013-12-13 20:53:00,
2013-12-13 11:02:00,-999.0,-99.9,30.12,East,90,6.0,-999.0,-999,-99.99,,,-99.99,,2013-12-13 21:02:00,
2013-12-13 11:11:00,-999.0,-99.9,30.11,North,0,0.0,-999.0,-999,-99.99,,,-99.99,,2013-12-13 21:11:00,
2013-12-13 11:22:00,-999.0,-99.9,30.11,SE,130,7.0,-999.0,-999,-99.99,,,-99.99,,2013-12-13 21:22:00,
2013-12-13 11:34:00,-999.0,-99.9,30.10,North,0,0.0,-999.0,-999,-99.99,,,-99.99,,2013-12-13 21:34:00,
2013-12-13 11:43:00,-999.0,-99.9,30.10,East,90,1.0,-999.0,-999,-99.99,,,-99.99,,2013-12-13 21:43:00,
2013-12-13 11:53:00,-999.0,-99.9,30.09,East,100,1.0,-999.0,-999,-99.99,,,-99.99,,2013-12-13 21:53:00,
2013-12-13 12:03:00,-999.0,-99.9,30.09,East,100,1.0,-999.0,-999,-99.99,,,-99.99,,2013-12-13 22:03:00,
2013-12-13 12:13:00,-999.0,-99.9,30.08,SE,140,9.0,-999.0,-999,-99.99,,,-99.99,,2013-12-13 22:13:00,
2013-12-13 12:23:00,-999.0,-99.9,30.08,ESE,120,8.0,-999.0,-999,-99.99,,,-99.99,,2013-12-13 22:23:00,
2013-12-13 12:33:00,-999.0,-99.9,30.07,ESE,120,2.0,-999.0,-999,-99.99,,,-99.99,,2013-12-13 22:33:00,
2013-12-13 12:42:00,-999.0,-99.9,30.06,SE,130,10.0,-999.0,-999,-99.99,,,-99.99,,2013-12-13 22:42:00,
2013-12-13 12:53:00,-999.0,-99.9,30.05,ESE,110,5.0,-999.0,-999,-99.99,,,-99.99,,2013-12-13 22:53:00,
2013-12-13 13:03:00,-999.0,-99.9,30.05,ESE,110,5.0,-999.0,-999,-99.99,,,-99.99,,2013-12-13 23:03:00,
2013-12-13 13:12:00,-999.0,-99.9,30.04,East,80,9.0,-999.0,-999,-99.99,,,-99.99,,2013-12-13 23:12:00,
2013-12-13 13:22:00,-999.0,-99.9,30.04,ESE,120,12.0,-999.0,-999,-99.99,,,-99.99,,2013-12-13 23:22:00,
2013-12-13 13:33:00,-999.0,-99.9,30.03,North,0,0.0,-999.0,-999,-99.99,,,-99.99,,2013-12-13 23:33:00,
2013-12-13 13:43:00,-999.0,-99.9,30.03,East,100,3.0,-999.0,-999,-99.99,,,-99.99,,2013-12-13 23:43:00,
2013-12-13 13:53:00,-999.0,-99.9,30.02,ESE,110,8.0,-999.0,-999,-99.99,,,-99.99,,2013-12-13 23:53:00,
2013-12-13 14:02:00,-999.0,-99.9,30.02,ESE,110,8.0,-999.0,-999,-99.99,,,-99.99,,2013-12-14 00:02:00,
2013-12-13 14:11:00,-999.0,-99.9,30.02,North,0,0.0,-999.0,-999,-99.99,,,-99.99,,2013-12-14 00:11:00,
2013-12-13 14:22:00,-999.0,-99.9,30.01,ESE,110,9.0,-999.0,-999,-99.99,,,-99.99,,2013-12-14 00:22:00,
2013-12-13 14:32:00,-999.0,-99.9,30.01,East,100,2.0,-999.0,-999,-99.99,,,-99.99,,2013-12-14 00:32:00,
2013-12-13 14:42:00,-999.0,-99.9,30.01,North,0,0.0,-999.0,-999,-99.99,,,-99.99,,2013-12-14 00:42:00,
2013-12-13 14:52:00,-999.0,-99.9,30.01,SSE,150,6.0,-999.0,-999,-99.99,,,-99.99,,2013-12-14 00:52:00,
2013-12-13 15:02:00,-999.0,-99.9,30.01,SSE,150,6.0,-999.0,-999,-99.99,,,-99.99,,2013-12-14 01:02:00,
2013-12-13 15:11:00,-999.0,-99.9,30.01,ESE,120,7.0,-999.0,-999,-99.99,,,-99.99,,2013-12-14 01:11:00,
2013-12-13 15:22:00,-999.0,-99.9,30.01,SSE,150,6.0,-999.0,-999,-99.99,,,-99.99,,2013-12-14 01:22:00,
2013-12-13 15:32:00,-999.0,-99.9,30.01,SE,140,8.0,-999.0,-999,-99.99,,,-99.99,,2013-12-14 01:32:00,
2013-12-13 15:42:00,-999.0,-99.9,30.02,SE,130,3.0,-999.0,-999,-99.99,,,-99.99,,2013-12-14 01:42:00,
2013-12-13 15:52:00,-999.0,-99.9,30.02,SE,140,6.0,-999.0,-999,-99.99,,,-99.99,,2013-12-14 01:52:00,
2013-12-13 16:01:00,-999.0,-99.9,30.02,ESE,120,5.0,-999.0,-999,-99.99,,,-99.99,,2013-12-14 02:01:00,
2013-12-13 16:12:00,-999.0,-99.9,30.02,ESE,120,8.0,-999.0,-999,-99.99,,,-99.99,,2013-12-14 02:12:00,
2013-12-13 16:22:00,-999.0,-99.9,30.01,ESE,120,7.0,-999.0,-999,-99.99,,,-99.99,,2013-12-14 02:22:00,
2013-12-13 16:32:00,-999.0,-99.9,30.01,ESE,120,9.0,-999.0,-999,-99.99,,,-99.99,,2013-12-14 02:32:00,
2013-12-13 16:42:00,-999.0,-99.9,30.02,North,0,0.0,-999.0,-999,-99.99,,,-99.99,,2013-12-14 02:42:00,
2013-12-13 16:52:00,-999.0,-99.9,30.02,North,0,0.0,-999.0,-999,-99.99,,,-99.99,,2013-12-14 02:52:00,
2013-12-13 17:02:00,-999.0,-99.9,30.02,North,0,0.0,-999.0,-999,-99.99,,,-99.99,,2013-12-14 03:02:00,
2013-12-13 17:12:00,-999.0,-99.9,30.02,SE,130,7.0,-999.0,-999,-99.99,,,-99.99,,2013-12-14 03:12:00,
2013-12-13 17:22:00,-999.0,-99.9,30.02,North,0,0.0,-999.0,-999,-99.99,,,-99.99,,2013-12-14 03:22:00,
2013-12-13 17:34:00,-999.0,-99.9,30.02,North,0,0.0,-999.0,-999,-99.99,,,-99.99,,2013-12-14 03:34:00,
2013-12-13 17:44:00,-999.0,-99.9,30.03,SSE,160,3.0,-999.0,-999,-99.99,,,-99.99,,2013-12-14 03:44:00,
2013-12-13 17:54:00,-999.0,-99.9,30.03,North,0,0.0,-999.0,-999,-99.99,,,-99.99,,2013-12-14 03:54:00,
2013-12-13 18:03:00,-999.0,-99.9,30.03,North,0,0.0,-999.0,-999,-99.99,,,-99.99,,2013-12-14 04:03:00,
2013-12-13 18:13:00,-999.0,-99.9,30.04,North,0,0.0,-999.0,-999,-99.99,,,-99.99,,2013-12-14 04:13:00,
2013-12-13 18:23:00,-999.0,-99.9,30.04,North,0,0.0,-999.0,-999,-99.99,,,-99.99,,2013-12-14 04:23:00,
2013-12-13 18:33:00,-999.0,-99.9,30.05,North,0,0.0,-999.0,-999,-99.99,,,-99.99,,2013-12-14 04:33:00,
2013-12-13 18:43:00,-999.0,-99.9,30.05,North,0,0.0,-999.0,-999,-99.99,,,-99.99,,2013-12-14 04:43:00,
2013-12-13 18:53:00,-999.0,-99.9,30.05,North,0,0.0,-999.0,-999,-99.99,,,-99.99,,2013-12-14 04:53:00,
2013-12-13 19:03:00,-999.0,-99.9,30.05,North,0,0.0,-999.0,-999,-99.99,,,-99.99,,2013-12-14 05:03:00,
2013-12-13 19:12:00,-999.0,-99.9,30.06,North,0,0.0,-999.0,-999,-99.99,,,-99.99,,2013-12-14 05:12:00,
2013-12-13 19:22:00,-999.0,-99.9,30.06,North,0,0.0,-999.0,-999,-99.99,,,-99.99,,2013-12-14 05:22:00,
2013-12-13 19:33:00,-999.0,-99.9,30.07,North,0,0.0,-999.0,-999,-99.99,,,-99.99,,2013-12-14 05:33:00,
2013-12-13 19:42:00,-999.0,-99.9,30.07,North,0,0.0,-999.0,-999,-99.99,,,-99.99,,2013-12-14 05:42:00,
2013-12-13 19:53:00,-999.0,-99.9,30.07,North,0,0.0,-999.0,-999,-99.99,,,-99.99,,2013-12-14 05:53:00,
2013-12-13 20:03:00,-999.0,-99.9,30.07,North,0,0.0,-999.0,-999,-99.99,,,-99.99,,2013-12-14 06:03:00,
2013-12-13 20:12:00,-999.0,-99.9,30.07,North,0,0.0,-999.0,-999,-99.99,,,-99.99,,2013-12-14 06:12:00,
2013-12-13 20:22:00,-999.0,-99.9,30.07,North,0,0.0,-999.0,-999,-99.99,,,-99.99,,2013-12-14 06:22:00,
2013-12-13 20:32:00,-999.0,-99.9,30.08,SE,130,1.0,-999.0,-999,-99.99,,,-99.99,,2013-12-14 06:32:00,
2013-12-13 20:42:00,-999.0,-99.9,30.08,North,0,0.0,-999.0,-999,-99.99,,,-99.99,,2013-12-14 06:42:00,
2013-12-13 20:52:00,-999.0,-99.9,30.08,North,0,0.0,-999.0,-999,-99.99,,,-99.99,,2013-12-14 06:52:00,
2013-12-13 21:02:00,-999.0,-99.9,30.08,North,0,0.0,-999.0,-999,-99.99,,,-99.99,,2013-12-14 07:02:00,
2013-12-13 21:12:00,-999.0,-99.9,30.07,North,0,0.0,-999.0,-999,-99.99,,,-99.99,,2013-12-14 07:12:00,
2013-12-13 21:23:00,-999.0,-99.9,30.07,North,0,0.0,-999.0,-999,-99.99,,,-99.99,,2013-12-14 07:23:00,
2013-12-13 21:33:00,-999.0,-99.9,30.08,North,0,0.0,-999.0,-999,-99.99,,,-99.99,,2013-12-14 07:33:00,
2013-12-13 21:42:00,-999.0,-99.9,30.08,North,0,0.0,-999.0,-999,-99.99,,,-99.99,,2013-12-14 07:42:00,
2013-12-13 21:52:00,-999.0,-99.9,30.08,North,0,0.0,-999.0,-999,-99.99,,,-99.99,,2013-12-14 07:52:00,
2013-12-13 22:02:00,-999.0,-99.9,30.08,North,0,0.0,-999.0,-999,-99.99,,,-99.99,,2013-12-14 08:02:00,
2013-12-13 22:11:00,-999.0,-99.9,30.08,North,0,0.0,-999.0,-999,-99.99,,,-99.99,,2013-12-14 08:11:00,
2013-12-13 22:22:00,-999.0,-99.9,30.08,North,0,0.0,-999.0,-999,-99.99,,,-99.99,,2013-12-14 08:22:00,
2013-12-13 22:33:00,-999.0,-99.9,30.08,North,0,0.0,-999.0,-999,-99.99,,,-99.99,,2013-12-14 08:33:00,
2013-12-13 22:42:00,-999.0,-99.9,30.08,North,0,0.0,-999.0,-999,-99.99,,,-99.99,,2013-12-14 08:42:00,
2013-12-13 22:52:00,-999.0,-99.9,30.08,North,0,0.0,-999.0,-999,-99.99,,,-99.99,,2013-12-14 08:52:00,
2013-12-13 23:02:00,-999.0,-99.9,30.08,North,0,0.0,-999.0,-999,-99.99,,,-99.99,,2013-12-14 09:02:00,
2013-12-13 23:12:00,-999.0,-99.9,30.08,North,0,0.0,-999.0,-999,-99.99,,,-99.99,,2013-12-14 09:12:00,
2013-12-13 23:22:00,-999.0,-99.9,30.07,North,0,0.0,-999.0,-999,-99.99,,,-99.99,,2013-12-14 09:22:00,
2013-12-13 23:33:00,-999.0,-99.9,30.07,North,0,0.0,-999.0,-999,-99.99,,,-99.99,,2013-12-14 09:33:00,
2013-12-13 23:44:00,-999.0,-99.9,30.07,North,0,0.0,-999.0,-999,-99.99,,,-99.99,,2013-12-14 09:44:00,
2013-12-13 23:54:00,-999.0,-99.9,30.07,North,0,0.0,-999.0,-999,-99.99,,,-99.99,,2013-12-14 09:54:00,